Time;durP1;ratioP1;P1;durP2;ratioP2;P2;SDS_P1;SDS_P2;PMS_P1;PMS_P2;Temp;Humidity;BMP_temperature;BMP_pressure;BME280_temperature;BME280_humidity;BME280_pressure;Samples;Min_cycle;Max_cycle;Signal;HPM_P1;HPM_P2
2023/05/09 00:00:47;;;;;;;19.25;7.95;;;;;;;11.40;100.00;93291.06;2080313;28;20041;-73
2023/05/09 00:01:57;;;;;;;71.78;9.50;;;;;;;11.36;100.00;93290.38;2085475;28;20056;-75
2023/05/09 00:03:05;;;;;;;70.13;10.48;;;;;;;11.38;100.00;93288.06;2087053;28;20036;-76
2023/05/09 00:04:31;;;;;;;56.17;9.80;;;;;;;11.32;100.00;93287.03;2088778;28;20036;-74
2023/05/09 00:05:42;;;;;;;63.15;10.45;;;;;;;11.30;100.00;93286.69;2080845;28;20038;-73
2023/05/09 00:06:59;;;;;;;99.10;12.13;;;;;;;11.26;100.00;93286.03;2085898;28;20045;-73
2023/05/09 00:08:07;;;;;;;56.75;9.55;;;;;;;11.24;100.00;93283.00;2088854;28;20029;-76
2023/05/09 00:09:19;;;;;;;118.65;10.38;;;;;;;11.16;100.00;93290.44;2094220;28;20036;-73
2023/05/09 00:10:29;;;;;;;101.93;9.85;;;;;;;11.19;100.00;93286.16;2085353;28;20048;-72
2023/05/09 00:12:01;;;;;;;147.82;11.43;;;;;;;11.19;100.00;93286.91;2094813;28;20054;-76
2023/05/09 00:13:12;;;;;;;64.20;9.10;;;;;;;11.22;100.00;93283.41;2088795;28;20050;-75
2023/05/09 00:14:20;;;;;;;51.15;10.40;;;;;;;11.23;100.00;93279.56;2085319;28;20033;-73
2023/05/09 00:15:48;;;;;;;16.55;9.73;;;;;;;11.24;100.00;93275.00;2086725;28;20044;-74
2023/05/09 00:17:17;;;;;;;24.20;8.77;;;;;;;11.27;100.00;93274.13;2093131;28;20047;-73
2023/05/09 00:18:25;;;;;;;69.43;9.07;;;;;;;11.24;100.00;93281.09;2085364;28;20106;-76
2023/05/09 00:19:51;;;;;;;85.63;10.63;;;;;;;11.21;100.00;93273.13;2085206;28;20044;-76
2023/05/09 00:21:20;;;;;;;97.07;10.07;;;;;;;11.22;100.00;93271.97;2081953;28;20550;-73
2023/05/09 00:22:40;;;;;;;128.25;11.45;;;;;;;11.19;100.00;93278.13;2083166;28;20029;-74
2023/05/09 00:23:56;;;;;;;150.68;11.52;;;;;;;11.17;100.00;93273.22;2087824;28;20126;-72
2023/05/09 00:25:07;;;;;;;88.55;10.18;;;;;;;11.20;100.00;93272.38;2079484;28;20548;-73
2023/05/09 00:26:54;;;;;;;106.65;11.00;;;;;;;11.21;100.00;93276.56;2096628;28;20055;-73
2023/05/09 00:28:01;;;;;;;;;;;;;;;11.26;100.00;93269.97;2090109;28;20078;-73
2023/05/09 00:29:25;;;;;;;33.78;9.30;;;;;;;11.25;100.00;93271.13;2071037;28;20035;-76
2023/05/09 00:30:35;;;;;;;73.80;9.05;;;;;;;11.18;100.00;93272.03;2081874;28;20040;-72
2023/05/09 00:32:01;;;;;;;24.38;8.55;;;;;;;11.20;100.00;93266.28;2085860;28;20102;-73
2023/05/09 00:33:12;;;;;;;23.20;8.95;;;;;;;11.22;100.00;93262.00;2080540;28;20045;-74
2023/05/09 00:34:21;;;;;;;81.03;9.95;;;;;;;11.19;100.00;93257.47;2079864;28;20195;-72
2023/05/09 00:35:44;;;;;;;69.07;10.30;;;;;;;11.21;100.00;93254.41;2087745;28;20135;-74
2023/05/09 00:36:50;;;;;;;95.13;10.50;;;;;;;11.25;100.00;93252.41;2081841;28;20041;-77
2023/05/09 00:38:00;;;;;;;198.48;12.48;;;;;;;11.18;100.00;93258.66;2077928;28;21024;-75
2023/05/09 00:39:16;;;;;;;34.13;9.35;;;;;;;11.19;100.00;93246.78;2093763;28;20032;-73
2023/05/09 00:40:29;;;;;;;40.85;10.15;;;;;;;11.27;100.00;93248.13;2099873;28;20082;-73
2023/05/09 00:41:39;;;;;;;41.85;9.77;;;;;;;11.28;100.00;93244.31;2085274;28;20524;-72
2023/05/09 00:42:50;;;;;;;137.68;11.98;;;;;;;11.17;100.00;93241.09;2092256;28;20040;-75
2023/05/09 00:44:00;;;;;;;185.75;13.02;;;;;;;11.15;100.00;93246.13;2082515;28;20040;-73
2023/05/09 00:45:28;;;;;;;48.10;9.95;;;;;;;11.25;100.00;93236.34;2077124;28;20037;-73
2023/05/09 00:46:38;;;;;;;37.20;9.32;;;;;;;11.28;100.00;93235.50;2087593;28;20048;-73
2023/05/09 00:47:47;;;;;;;61.63;10.27;;;;;;;11.32;100.00;93238.84;2075707;28;20056;-73
2023/05/09 00:48:56;;;;;;;142.02;12.45;;;;;;;11.27;100.00;93234.75;2073401;28;20553;-72
2023/05/09 00:50:08;;;;;;;97.07;10.70;;;;;;;11.28;100.00;93233.59;2084067;28;20048;-71
2023/05/09 00:51:18;;;;;;;66.88;10.07;;;;;;;11.30;100.00;93233.19;2079812;28;20033;-72
2023/05/09 00:52:37;;;;;;;57.50;9.30;;;;;;;11.33;100.00;93235.03;2089017;28;20127;-76
2023/05/09 00:53:44;;;;;;;134.23;11.60;;;;;;;11.31;100.00;93234.69;2083951;28;20681;-72
2023/05/09 00:54:50;;;;;;;190.43;12.95;;;;;;;11.26;100.00;93230.56;2084241;28;20036;-73
2023/05/09 00:56:25;;;;;;;172.57;12.80;;;;;;;11.28;100.00;93232.81;2089309;28;20033;-72
2023/05/09 00:57:32;;;;;;;10.52;9.32;;;;;;;11.33;100.00;93227.00;2082809;28;20103;-72
2023/05/09 00:58:42;;;;;;;120.80;11.80;;;;;;;11.25;100.00;93231.75;2076537;28;20404;-72
2023/05/09 00:59:47;;;;;;;32.00;9.23;;;;;;;11.27;100.00;93225.97;2073883;28;20030;-70
2023/05/09 01:01:15;;;;;;;130.15;12.15;;;;;;;11.25;100.00;93234.44;2076559;28;20032;-72
2023/05/09 01:02:24;;;;;;;89.50;9.88;;;;;;;11.29;100.00;93221.72;2091638;28;20070;-72
2023/05/09 01:03:42;;;;;;;89.53;10.93;;;;;;;11.29;100.00;93237.78;2092961;28;20072;-72
2023/05/09 01:04:50;;;;;;;66.53;10.95;;;;;;;11.29;100.00;93218.28;2078465;28;20030;-72
2023/05/09 01:06:13;;;;;;;93.90;11.20;;;;;;;11.28;100.00;93230.94;2087624;28;20598;-72
2023/05/09 01:07:39;;;;;;;126.03;10.65;;;;;;;11.31;100.00;93242.69;2094540;28;20059;-74
2023/05/09 01:08:58;;;;;;;44.55;8.90;;;;;;;11.39;100.00;93240.63;2082683;28;20044;-75
2023/05/09 01:10:31;;;;;;;100.47;8.82;;;;;;;11.38;100.00;93247.16;2087119;28;20049;-74
2023/05/09 01:12:07;;;;;;;56.47;9.20;;;;;;;11.39;100.00;93238.69;2091077;28;20545;-73
2023/05/09 01:13:39;;;;;;;63.58;9.10;;;;;;;11.36;100.00;93239.53;2087915;28;20499;-72
2023/05/09 01:15:04;;;;;;;44.38;7.97;;;;;;;11.30;100.00;93225.91;2086810;28;20036;-72
2023/05/09 01:16:45;;;;;;;29.65;8.05;;;;;;;11.28;100.00;93225.56;2081125;28;20072;-71
2023/05/09 01:18:01;;;;;;;94.93;8.70;;;;;;;11.25;100.00;93223.72;2083840;28;20025;-75
2023/05/09 01:19:32;;;;;;;28.42;8.02;;;;;;;11.27;100.00;93225.97;2078610;28;20043;-75
2023/05/09 01:21:26;;;;;;;12.57;7.82;;;;;;;11.29;100.00;93212.94;2090724;28;20035;-75
2023/05/09 01:22:40;;;;;;;28.10;8.27;;;;;;;11.26;100.00;93214.53;2090682;28;20413;-75
2023/05/09 01:24:01;;;;;;;14.55;8.25;;;;;;;11.28;100.00;93216.78;2087209;28;20123;-75
2023/05/09 01:25:38;;;;;;;53.42;9.55;;;;;;;11.19;100.00;93217.34;2088497;28;20191;-74
2023/05/09 01:27:12;;;;;;;42.38;8.35;;;;;;;11.27;100.00;93212.59;2087257;28;20037;-74
2023/05/09 01:28:39;;;;;;;63.42;8.65;;;;;;;11.28;100.00;93222.13;2092440;28;20036;-74
2023/05/09 01:29:52;;;;;;;73.00;9.30;;;;;;;11.23;100.00;93214.59;2087965;28;20039;-74
2023/05/09 01:31:02;;;;;;;13.85;8.07;;;;;;;11.19;100.00;93219.28;2084817;28;20043;-75
2023/05/09 01:32:20;;;;;;;10.93;7.90;;;;;;;11.22;100.00;93213.09;2080967;28;20041;-72
2023/05/09 01:33:30;;;;;;;8.43;7.53;;;;;;;11.35;100.00;93209.34;2080498;28;20519;-73
2023/05/09 01:34:58;;;;;;;35.55;8.20;;;;;;;11.42;100.00;93216.47;2081210;28;20070;-73
2023/05/09 01:36:08;;;;;;;26.73;8.20;;;;;;;11.29;100.00;93218.28;2093196;28;20071;-76
2023/05/09 01:37:18;;;;;;;9.55;7.53;;;;;;;11.31;100.00;93213.28;2089958;28;20095;-73
2023/05/09 01:38:29;;;;;;;9.43;7.70;;;;;;;11.26;100.00;93219.13;2091385;28;20047;-75
2023/05/09 01:39:53;;;;;;;33.05;8.75;;;;;;;11.26;100.00;93205.75;2096797;28;20043;-76
2023/05/09 01:41:00;;;;;;;42.90;8.63;;;;;;;11.23;100.00;93214.59;2085424;28;20041;-73
2023/05/09 01:42:19;;;;;;;45.00;8.05;;;;;;;11.17;100.00;93210.91;2077299;28;20034;-77
2023/05/09 01:43:31;;;;;;;26.30;8.85;;;;;;;11.15;100.00;93216.69;2082787;28;20150;-74
2023/05/09 01:44:45;;;;;;;29.50;9.00;;;;;;;11.12;100.00;93214.84;2090210;28;20037;-72
2023/05/09 01:45:50;;;;;;;16.90;8.40;;;;;;;11.12;100.00;93216.78;2087213;28;20040;-74
2023/05/09 01:47:10;;;;;;;28.38;8.75;;;;;;;11.14;100.00;93217.09;2077633;28;20047;-75
2023/05/09 01:48:31;;;;;;;31.90;8.77;;;;;;;11.16;100.00;93212.84;2090963;28;20437;-75
2023/05/09 01:49:43;;;;;;;43.08;9.20;;;;;;;11.17;100.00;93200.97;2085971;28;20090;-75
2023/05/09 01:50:49;;;;;;;9.90;8.55;;;;;;;11.21;100.00;93214.28;2087963;28;20048;-72
2023/05/09 01:52:00;;;;;;;12.82;7.95;;;;;;;11.18;100.00;93204.41;2090478;28;20039;-74
2023/05/09 01:53:26;;;;;;;19.95;7.97;;;;;;;11.21;100.00;93201.66;2093082;28;20043;-73
2023/05/09 01:54:38;;;;;;;17.60;8.60;;;;;;;11.21;100.00;93206.25;2088706;28;20138;-73
2023/05/09 01:55:51;;;;;;;13.50;7.93;;;;;;;11.12;100.00;93204.16;2075956;28;20523;-76
2023/05/09 01:57:05;;;;;;;26.05;8.20;;;;;;;11.00;100.00;93205.53;2085939;28;20029;-76
2023/05/09 01:58:16;;;;;;;15.07;7.47;;;;;;;11.08;100.00;93206.16;2079449;28;20049;-75
2023/05/09 01:59:35;;;;;;;37.20;8.45;;;;;;;11.05;100.00;93199.69;2088156;28;20041;-72
2023/05/09 02:00:53;;;;;;;11.68;8.15;;;;;;;11.07;100.00;93202.72;2098785;28;20039;-73
2023/05/09 02:02:06;;;;;;;8.95;8.05;;;;;;;11.07;100.00;93202.72;2084867;28;20033;-74
2023/05/09 02:03:26;;;;;;;14.65;7.50;;;;;;;11.08;100.00;93206.16;2089832;28;20078;-76
2023/05/09 02:05:00;;;;;;;28.60;8.15;;;;;;;11.04;100.00;93198.19;2092272;28;20059;-76
2023/05/09 02:06:11;;;;;;;10.02;8.35;;;;;;;11.14;100.00;93196.44;2084825;28;20676;-73
2023/05/09 02:07:23;;;;;;;15.93;8.02;;;;;;;11.03;100.00;93199.38;2077317;28;20029;-72
2023/05/09 02:08:51;;;;;;;11.95;7.97;;;;;;;11.04;100.00;93200.88;2086954;28;20787;-73
2023/05/09 02:10:15;;;;;;;8.07;7.28;;;;;;;11.12;100.00;93195.38;2088972;28;20102;-72
2023/05/09 02:11:42;;;;;;;22.02;8.60;;;;;;;11.12;100.00;93204.16;2096863;28;20032;-74
2023/05/09 02:13:01;;;;;;;9.07;7.50;;;;;;;11.17;100.00;93198.28;2091780;28;20070;-73
2023/05/09 02:14:14;;;;;;;10.65;7.78;;;;;;;11.22;100.00;93191.69;2088732;28;20095;-73
2023/05/09 02:15:30;;;;;;;14.30;7.05;;;;;;;11.24;100.00;93202.75;2085728;28;20059;-75
2023/05/09 02:16:46;;;;;;;13.32;7.15;;;;;;;11.21;100.00;93196.28;2080610;28;20057;-73
2023/05/09 02:17:56;;;;;;;7.55;6.82;;;;;;;11.12;100.00;93188.09;2084257;28;20039;-73
2023/05/09 02:20:59;;;;;;;9.55;7.40;;;;;;;10.95;100.00;93190.00;2119690;27;21020;-71
2023/05/09 02:22:10;;;;;;;9.00;7.20;;;;;;;10.95;100.00;93181.22;2105624;28;20040;-73
2023/05/09 02:23:28;;;;;;;9.25;7.78;;;;;;;10.96;100.00;93188.81;2100236;28;20118;-74
2023/05/09 02:24:42;;;;;;;15.38;8.52;;;;;;;10.93;100.00;93189.66;2098095;28;20024;-74
2023/05/09 02:26:00;;;;;;;16.83;8.65;;;;;;;10.91;100.00;93189.31;2103092;28;20028;-74
2023/05/09 02:27:32;;;;;;;13.90;8.15;;;;;;;10.98;100.00;93183.81;2109133;28;20446;-78
2023/05/09 02:28:46;;;;;;;20.95;8.57;;;;;;;10.94;100.00;93180.47;2101279;28;20070;-78
2023/05/09 02:30:02;;;;;;;14.15;8.57;;;;;;;10.98;100.00;93183.81;2099012;28;20143;-74
2023/05/09 02:31:15;;;;;;;20.58;8.35;;;;;;;10.99;100.00;93173.88;2103215;28;20036;-77
2023/05/09 02:32:32;;;;;;;9.07;8.05;;;;;;;10.99;100.00;93171.19;2105189;28;20040;-77
2023/05/09 02:33:59;;;;;;;20.25;8.93;;;;;;;10.99;100.00;93179.22;2108892;28;20062;-74
2023/05/09 02:35:16;;;;;;;28.40;8.90;;;;;;;10.99;100.00;93173.88;2107212;28;20066;-74
2023/05/09 02:36:26;;;;;;;17.80;8.65;;;;;;;11.03;100.00;93175.28;2105401;28;20028;-74
2023/05/09 02:37:39;;;;;;;21.90;8.82;;;;;;;10.99;100.00;93176.53;2102424;28;20028;-77
2023/05/09 02:38:52;;;;;;;9.10;8.05;;;;;;;10.97;100.00;93176.94;2102995;28;20044;-74
2023/05/09 02:40:04;;;;;;;33.17;9.10;;;;;;;10.97;100.00;93181.53;2100018;28;20044;-74
2023/05/09 02:41:16;;;;;;;8.95;7.95;;;;;;;10.99;100.00;93171.19;2093428;28;20040;-74
2023/05/09 02:42:29;;;;;;;15.70;8.90;;;;;;;11.00;100.00;93173.44;2092551;28;20063;-78
2023/05/09 02:44:02;;;;;;;30.98;8.15;;;;;;;11.00;100.00;93178.03;2107778;28;20374;-74
2023/05/09 02:45:18;;;;;;;17.13;7.80;;;;;;;11.00;100.00;93176.13;2099216;28;20102;-74
2023/05/09 02:46:35;;;;;;;28.83;8.40;;;;;;;10.93;100.00;93172.84;2105188;28;20028;-74
2023/05/09 02:48:07;;;;;;;;;;;;;;;;;;;;;
2023/05/09 02:49:55;;;;;;;60.50;9.13;;;;;;;10.95;100.00;93175.88;2111698;28;20143;-75
2023/05/09 02:51:11;;;;;;;12.50;7.55;;;;;;;11.02;100.00;93178.41;2087032;28;20045;-74
2023/05/09 02:52:22;;;;;;;14.93;7.88;;;;;;;10.95;100.00;93190.00;2097857;28;20399;-75
2023/05/09 02:53:33;;;;;;;12.38;7.10;;;;;;;10.88;100.00;93184.78;2098864;28;20548;-74
2023/05/09 02:54:39;;;;;;;11.00;8.50;;;;;;;10.91;100.00;93178.63;2092013;28;20041;-75
2023/05/09 02:55:55;;;;;;;10.35;7.30;;;;;;;10.96;100.00;93175.44;2087814;28;20033;-76
2023/05/09 02:57:03;;;;;;;31.58;8.40;;;;;;;10.88;100.00;93174.09;2094284;28;20398;-74
2023/05/09 03:04:09;;;;;;;7.97;7.18;;;;;;;10.96;100.00;93166.66;2051663;28;20393;-74
2023/05/09 03:05:53;;;;;;;9.60;7.40;;;;;;;10.96;100.00;93162.06;2087095;28;20032;-74
2023/05/09 03:07:18;;;;;;;8.32;7.22;;;;;;;10.97;100.00;93165.50;2074262;28;20046;-75
2023/05/09 03:08:54;;;;;;;11.38;7.65;;;;;;;11.00;100.00;93162.00;2078915;28;20052;-74
2023/05/09 03:10:14;;;;;;;9.07;8.07;;;;;;;11.01;100.00;93169.59;2079199;28;20553;-74
2023/05/09 03:11:42;;;;;;;10.18;8.38;;;;;;;10.97;100.00;93160.16;2092928;28;20036;-74
2023/05/09 03:13:19;;;;;;;7.75;7.05;;;;;;;10.98;100.00;93162.44;2100354;28;20035;-74
2023/05/09 03:14:49;;;;;;;9.00;8.10;;;;;;;11.00;100.00;93154.72;2102440;28;20046;-74
2023/05/09 03:16:50;;;;;;;14.63;8.20;;;;;;;11.00;100.00;93149.38;2099923;28;20130;-73
2023/05/09 03:18:20;;;;;;;13.27;7.68;;;;;;;10.99;100.00;93147.88;2095968;28;20042;-74
2023/05/09 03:19:31;;;;;;;15.55;8.10;;;;;;;10.97;100.00;93152.13;2099465;28;21202;-74
2023/05/09 03:20:44;;;;;;;15.68;8.98;;;;;;;10.98;100.00;93151.72;2088996;28;20045;-77
2023/05/09 03:21:54;;;;;;;32.65;8.48;;;;;;;10.92;100.00;93153.38;2090806;28;20068;-74
2023/05/09 03:23:06;;;;;;;18.35;8.93;;;;;;;10.95;100.00;93151.81;2088514;28;20124;-74
2023/05/09 03:24:14;;;;;;;48.22;8.90;;;;;;;10.92;100.00;93156.06;2103311;28;20036;-74
2023/05/09 03:25:25;;;;;;;12.73;8.82;;;;;;;10.98;100.00;93159.75;2105574;28;20489;-74
2023/05/09 03:26:36;;;;;;;25.52;8.60;;;;;;;11.00;100.00;93153.97;2101017;28;20097;-76
2023/05/09 03:27:44;;;;;;;19.20;9.23;;;;;;;10.97;100.00;93154.81;2089410;28;20037;-75
2023/05/09 03:28:53;;;;;;;10.07;8.75;;;;;;;10.98;100.00;93153.66;2101039;28;20085;-75
2023/05/09 03:30:00;;;;;;;41.47;9.43;;;;;;;10.99;100.00;93158.56;2091064;28;20026;-74
2023/05/09 03:31:29;;;;;;;22.65;9.65;;;;;;;11.02;100.00;93147.06;2102253;28;20402;-75
2023/05/09 03:32:57;;;;;;;11.77;9.20;;;;;;;11.01;100.00;93150.13;2096421;28;20038;-75
2023/05/09 03:34:16;;;;;;;59.00;10.30;;;;;;;10.99;100.00;93147.13;2101923;28;20062;-74
2023/05/09 03:35:27;;;;;;;71.72;11.10;;;;;;;11.01;100.00;93147.44;2102232;28;20036;-73
2023/05/09 03:36:44;;;;;;;75.32;11.45;;;;;;;10.90;100.00;93142.34;2096211;28;20036;-74
2023/05/09 03:37:54;;;;;;;27.58;9.57;;;;;;;10.91;100.00;93145.78;2092487;28;20056;-75
2023/05/09 03:38:58;;;;;;;;;;;;;;;10.95;100.00;93144.53;2089259;28;20033;-74
2023/05/09 03:40:08;;;;;;;13.13;9.57;;;;;;;10.96;100.00;93140.69;2086634;28;19912;-73
2023/05/09 03:41:34;;;;;;;17.42;12.60;;;;;;;10.96;100.00;93139.94;2098409;28;20155;-75
2023/05/09 03:42:40;;;;;;;63.38;15.07;;;;;;;10.97;100.00;93139.50;2102374;28;20081;-74
2023/05/09 03:43:49;;;;;;;108.65;12.68;;;;;;;10.94;100.00;93143.03;2094957;28;20067;-73
2023/05/09 03:45:02;;;;;;;57.80;11.95;;;;;;;10.95;100.00;93138.44;2087095;28;20041;-73
2023/05/09 03:46:13;;;;;;;51.58;10.68;;;;;;;10.97;100.00;93136.06;2089887;28;20043;-72
2023/05/09 03:47:41;;;;;;;141.10;11.70;;;;;;;10.95;100.00;93144.53;2100849;28;20048;-72
2023/05/09 03:48:53;;;;;;;75.13;11.90;;;;;;;11.00;100.00;93144.03;2100468;28;20032;-72
2023/05/09 03:50:32;;;;;;;112.80;10.65;;;;;;;10.99;100.00;93142.53;2106917;28;20085;-73
2023/05/09 03:51:51;;;;;;;142.15;11.18;;;;;;;10.97;100.00;93142.19;2102814;28;20032;-74
2023/05/09 03:53:19;;;;;;;71.05;10.00;;;;;;;11.04;100.00;93147.38;2101435;28;20043;-79
2023/05/09 03:54:28;;;;;;;23.17;10.05;;;;;;;11.01;100.00;93142.84;2097524;28;20083;-73
2023/05/09 03:55:56;;;;;;;97.00;11.10;;;;;;;10.98;100.00;93146.38;2100818;28;20036;-73
2023/05/09 03:57:05;;;;;;;115.32;11.27;;;;;;;11.02;100.00;93147.06;2092381;28;20037;-75
2023/05/09 03:58:18;;;;;;;20.42;10.52;;;;;;;11.03;100.00;93148.53;2084369;28;20040;-74
2023/05/09 03:59:26;;;;;;;21.98;9.60;;;;;;;11.03;100.00;93145.88;2081436;28;20432;-73
2023/05/09 04:00:38;;;;;;;18.80;9.82;;;;;;;11.01;100.00;93145.53;2083920;28;20037;-73
2023/05/09 04:02:06;;;;;;;33.22;9.70;;;;;;;11.02;100.00;93147.06;2087691;28;20049;-75
2023/05/09 04:03:33;;;;;;;93.95;10.75;;;;;;;10.94;100.00;93148.38;2104802;28;20047;-73
2023/05/09 04:04:46;;;;;;;31.95;10.45;;;;;;;10.95;100.00;93151.81;2097064;28;20832;-75
2023/05/09 04:05:53;;;;;;;32.35;10.25;;;;;;;11.00;100.00;93148.63;2091262;28;20025;-77
2023/05/09 04:07:04;;;;;;;15.70;9.27;;;;;;;11.04;100.00;93147.38;2084936;28;20531;-73
2023/05/09 04:08:19;;;;;;;42.20;10.30;;;;;;;11.02;100.00;93144.38;2104839;28;20043;-74
2023/05/09 04:09:28;;;;;;;29.35;10.60;;;;;;;11.06;100.00;93149.63;2097119;28;20444;-73
2023/05/09 04:10:38;;;;;;;34.60;10.30;;;;;;;11.06;100.00;93144.28;2090444;28;20116;-73
2023/05/09 04:11:49;;;;;;;74.93;11.40;;;;;;;10.94;100.00;93145.69;2091848;28;20128;-76
2023/05/09 04:12:58;;;;;;;24.00;10.63;;;;;;;11.02;100.00;93148.97;2089913;28;20035;-76
2023/05/09 04:14:06;;;;;;;;;;;;;;;11.03;100.00;93143.19;2089385;28;20698;-73
2023/05/09 04:15:31;;;;;;;31.05;10.15;;;;;;;11.03;100.00;93153.91;2097828;28;20006;-73
2023/05/09 04:16:42;;;;;;;56.80;11.40;;;;;;;11.02;100.00;93149.72;2104108;28;20040;-74
2023/05/09 04:17:52;;;;;;;35.40;10.52;;;;;;;11.23;100.00;93145.78;2106712;27;20051;-75
2023/05/09 04:19:10;;;;;;;49.13;10.73;;;;;;;11.17;100.00;93147.47;2094768;28;20094;-76
2023/05/09 04:20:46;;;;;;;48.03;11.13;;;;;;;11.21;100.00;93148.13;2087264;28;20068;-79
2023/05/09 04:21:57;;;;;;;11.18;9.98;;;;;;;11.18;100.00;93142.88;2088139;28;20485;-74
2023/05/09 04:23:30;;;;;;;39.38;12.95;;;;;;;11.18;100.00;93150.88;2098248;28;20070;-74
2023/05/09 04:24:41;;;;;;;77.40;13.20;;;;;;;11.18;100.00;93142.88;2097869;28;20109;-74
2023/05/09 04:26:12;;;;;;;13.40;12.00;;;;;;;11.18;100.00;93148.22;2105151;27;20024;-77
2023/05/09 04:27:33;;;;;;;45.42;13.52;;;;;;;11.09;100.00;93144.19;2103636;28;20044;-74
2023/05/09 04:29:52;;;;;;;12.35;11.05;;;;;;;11.10;100.00;93142.25;2089239;28;20037;-74
2023/05/09 04:31:01;;;;;;;11.65;10.45;;;;;;;11.17;100.00;93136.00;2062986;28;20037;-73
2023/05/09 04:32:10;;;;;;;18.48;10.77;;;;;;;11.15;100.00;93143.69;2047645;28;20030;-73
2023/05/09 04:33:23;;;;;;;31.13;12.05;;;;;;;11.18;100.00;93142.88;2095022;28;20044;-75
2023/05/09 04:34:43;;;;;;;30.70;12.23;;;;;;;11.17;100.00;93142.13;2086401;28;20040;-75
2023/05/09 04:35:51;;;;;;;15.40;11.88;;;;;;;11.20;100.00;93145.88;2085215;28;20075;-75
2023/05/09 04:37:00;;;;;;;21.27;13.07;;;;;;;11.19;100.00;93147.03;2085546;28;20029;-73
2023/05/09 04:38:11;;;;;;;32.47;13.50;;;;;;;11.19;100.00;93141.69;2088016;28;20033;-75
2023/05/09 04:39:22;;;;;;;62.88;13.65;;;;;;;11.08;100.00;93142.69;2094152;28;20037;-71
2023/05/09 04:40:33;;;;;;;28.42;12.63;;;;;;;11.04;100.00;93142.03;2092132;28;20082;-71
2023/05/09 04:41:43;;;;;;;17.88;12.32;;;;;;;11.13;100.00;93148.72;2090534;28;20056;-72
2023/05/09 04:43:11;;;;;;;19.00;13.30;;;;;;;11.21;100.00;93147.38;2095055;28;20028;-72
2023/05/09 04:44:48;;;;;;;20.38;12.88;;;;;;;11.53;100.00;93143.91;2092431;28;20721;-74
2023/05/09 04:45:59;;;;;;;30.85;14.13;;;;;;;11.43;100.00;93140.34;2094775;28;20564;-76
2023/05/09 04:47:43;;;;;;;13.45;11.68;;;;;;;11.39;100.00;93137.00;2093772;28;20040;-71
2023/05/09 04:48:47;;;;;;;11.68;10.52;;;;;;;11.37;100.00;93138.59;2104241;28;21779;-72
2023/05/09 04:49:51;;;;;;;13.82;11.48;;;;;;;11.34;100.00;93140.19;2088177;28;20029;-73
2023/05/09 04:51:03;;;;;;;13.60;12.20;;;;;;;11.40;100.00;93141.16;2080139;28;20054;-72
2023/05/09 04:52:19;;;;;;;14.85;11.90;;;;;;;11.40;100.00;93137.75;2098970;28;20549;-75
2023/05/09 04:53:25;;;;;;;14.00;11.75;;;;;;;11.36;100.00;93135.16;2090104;28;20128;-72
2023/05/09 04:54:35;;;;;;;18.73;12.68;;;;;;;11.34;100.00;93140.94;2094441;28;20036;-71
2023/05/09 04:56:20;;;;;;;18.30;11.98;;;;;;;11.41;100.00;93147.28;2091469;28;20044;-74
2023/05/09 04:57:32;;;;;;;13.52;11.80;;;;;;;11.41;100.00;93139.25;2091478;28;20057;-72
2023/05/09 04:58:37;;;;;;;16.58;12.35;;;;;;;11.46;100.00;93144.88;2091949;28;20025;-74
2023/05/09 04:59:38;;;;;;;14.90;11.40;;;;;;;11.43;100.00;93142.28;2093142;28;20032;-72
2023/05/09 05:00:46;;;;;;;21.25;12.50;;;;;;;11.42;100.00;93140.78;2085066;28;20025;-71
2023/05/09 05:02:34;;;;;;;;;;;;;;;;;;;;;
2023/05/09 05:04:04;;;;;;;19.52;10.05;;;;;;;11.41;100.00;93140.00;2084517;28;19916;-72
2023/05/09 05:05:31;;;;;;;11.23;10.13;;;;;;;11.42;100.00;93135.41;2109198;28;20193;-73
2023/05/09 05:07:05;;;;;;;11.77;9.80;;;;;;;11.49;100.00;93141.34;2104256;28;20149;-71
2023/05/09 05:12:44;;;;;;;15.13;9.00;;;;;;;11.66;100.00;93139.38;2102644;28;19918;-71
2023/05/09 05:13:46;;;;;;;10.98;9.07;;;;;;;11.63;100.00;93134.13;2089131;28;20043;-73
2023/05/09 05:14:49;;;;;;;15.40;9.35;;;;;;;11.60;100.00;93136.47;2085602;28;20052;-71
2023/05/09 05:15:51;;;;;;;11.10;9.10;;;;;;;11.57;100.00;93139.97;2085262;28;20083;-71
2023/05/09 05:17:10;;;;;;;23.52;9.98;;;;;;;11.53;100.00;93135.88;2085268;28;20499;-72
2023/05/09 05:18:16;;;;;;;17.90;10.20;;;;;;;11.42;100.00;93133.50;2095606;28;20058;-71
2023/05/09 05:19:33;;;;;;;17.63;9.88;;;;;;;11.47;100.00;93132.97;2094219;28;20040;-75
2023/05/09 05:20:43;;;;;;;11.05;9.32;;;;;;;11.49;100.00;93133.31;2084281;28;20066;-72
2023/05/09 05:22:13;;;;;;;27.80;9.68;;;;;;;11.43;100.00;93131.56;2079733;28;20097;-72
2023/05/09 05:23:26;;;;;;;11.77;10.13;;;;;;;11.55;100.00;93134.31;2091086;28;20115;-71
2023/05/09 05:24:31;;;;;;;16.60;10.23;;;;;;;11.59;100.00;93131.56;2087004;28;20095;-74
2023/05/09 05:25:39;;;;;;;23.45;10.20;;;;;;;11.52;100.00;93126.38;2091250;28;20047;-74
2023/05/09 05:26:49;;;;;;;16.42;9.85;;;;;;;11.56;100.00;93129.72;2086322;28;20036;-73
2023/05/09 05:28:04;;;;;;;13.15;9.48;;;;;;;11.47;100.00;93126.88;2087315;28;20107;-71
2023/05/09 05:29:11;;;;;;;11.13;9.82;;;;;;;11.54;100.00;93116.72;2086596;28;20114;-71
2023/05/09 05:30:20;;;;;;;10.88;9.73;;;;;;;11.64;100.00;93119.56;2087891;28;20068;-71
2023/05/09 05:31:29;;;;;;;13.93;9.80;;;;;;;11.59;100.00;93118.16;2100229;28;20065;-72
2023/05/09 05:32:40;;;;;;;12.07;10.32;;;;;;;11.57;100.00;93131.19;2091645;28;20040;-76
2023/05/09 05:33:52;;;;;;;11.40;10.18;;;;;;;11.62;100.00;93133.38;2095360;28;20064;-73
2023/05/09 05:34:56;;;;;;;12.27;9.75;;;;;;;11.67;100.00;93126.75;2089796;28;20037;-74
2023/05/09 05:36:08;;;;;;;13.52;10.15;;;;;;;11.68;100.00;93120.25;2083510;28;20083;-74
2023/05/09 05:37:17;;;;;;;13.98;9.88;;;;;;;11.61;100.00;93129.19;2088035;28;20033;-71
2023/05/09 05:38:20;;;;;;;36.15;9.85;;;;;;;11.60;100.00;93120.41;2087363;28;20092;-72
2023/05/09 05:39:35;;;;;;;10.60;8.77;;;;;;;11.71;100.00;93116.69;2086794;28;20045;-72
2023/05/09 05:40:39;;;;;;;9.93;8.68;;;;;;;11.71;100.00;93116.69;2087272;28;20041;-74
2023/05/09 05:41:42;;;;;;;10.85;8.55;;;;;;;11.75;100.00;93115.44;2079579;28;20714;-72
2023/05/09 05:42:47;;;;;;;16.60;9.40;;;;;;;11.70;100.00;93115.19;2083901;28;20036;-71
2023/05/09 05:43:52;;;;;;;14.55;10.25;;;;;;;11.75;100.00;93112.75;2086119;28;20032;-72
2023/05/09 05:45:06;;;;;;;;;;;;;;;11.70;100.00;93117.88;2093431;28;20036;-73
2023/05/09 05:46:15;;;;;;;18.05;9.43;;;;;;;11.74;100.00;93118.53;2090781;28;20294;-72
2023/05/09 05:47:30;;;;;;;19.52;9.25;;;;;;;11.76;100.00;93116.19;2081571;28;20048;-72
2023/05/09 05:48:36;;;;;;;10.68;8.93;;;;;;;11.73;100.00;93119.72;2092757;28;20551;-71
2023/05/09 05:49:43;;;;;;;9.80;8.80;;;;;;;11.79;100.00;93121.44;2088596;28;20041;-72
2023/05/09 05:51:10;;;;;;;9.90;8.30;;;;;;;11.75;100.00;93118.09;2086712;28;20128;-71
2023/05/09 05:52:34;;;;;;;13.68;9.07;;;;;;;11.83;100.00;93110.66;2109825;27;20035;-73
2023/05/09 05:53:40;;;;;;;13.57;9.40;;;;;;;11.83;100.00;93121.38;2099583;28;20040;-73
2023/05/09 05:54:52;;;;;;;10.43;9.30;;;;;;;11.86;100.00;93114.44;2078937;28;20227;-74
2023/05/09 05:56:02;;;;;;;10.80;8.43;;;;;;;11.91;100.00;93111.25;2083387;28;20136;-71
2023/05/09 05:57:39;;;;;;;11.35;7.38;;;;;;;11.98;100.00;93108.34;2099694;28;21347;-72
2023/05/09 05:58:55;;;;;;;8.70;7.53;;;;;;;12.09;100.00;93106.16;2087099;28;20045;-72
2023/05/09 05:59:59;;;;;;;9.27;8.38;;;;;;;12.38;100.00;93114.16;2087234;28;20033;-75
2023/05/09 06:01:02;;;;;;;8.48;7.55;;;;;;;12.18;100.00;93105.53;2083206;28;20036;-72
2023/05/09 06:02:22;;;;;;;8.82;7.80;;;;;;;12.25;100.00;93111.44;2094089;28;20042;-71
2023/05/09 06:03:38;;;;;;;19.48;8.55;;;;;;;12.20;100.00;93101.22;2105506;28;20028;-72
2023/05/09 06:04:46;;;;;;;10.43;8.52;;;;;;;12.22;100.00;93108.84;2090271;28;20703;-71